createdAt,value
2023-03-23T15:58:54.618Z,12.40
2023-03-23T16:01:26.845Z,12.38
2023-03-23T16:04:01.747Z,13.60
2023-03-23T16:06:33.220Z,13.48
2023-03-23T16:09:01.458Z,13.40
2023-03-23T16:11:31.513Z,13.10
2023-03-23T16:13:59.846Z,14.75
2023-03-23T16:16:43.596Z,13.52
2023-03-23T16:19:16.518Z,12.93
2023-03-23T16:21:44.382Z,12.40
2023-03-23T16:24:12.146Z,14.82
2023-03-23T16:26:41.097Z,13.68
2023-03-23T16:29:33.861Z,14.93
2023-03-23T16:32:04.967Z,14.88
2023-03-23T16:34:34.094Z,14.85
2023-03-23T16:37:02.084Z,14.50
2023-03-23T16:39:31.791Z,14.05
2023-03-23T16:41:59.420Z,13.43
2023-03-23T16:44:35.319Z,15.00
2023-03-23T16:47:02.456Z,14.77
2023-03-23T16:49:30.008Z,16.02
2023-03-23T16:51:57.761Z,16.02
2023-03-23T16:54:24.985Z,16.73
2023-03-23T16:56:52.895Z,16.75
2023-03-23T16:59:20.377Z,16.00
2023-03-23T17:01:51.369Z,16.67
2023-03-23T17:04:18.943Z,16.15
2023-03-23T17:06:49.525Z,14.88
2023-03-23T17:09:18.188Z,15.13
2023-03-23T17:11:45.579Z,15.63
2023-03-23T17:14:16.344Z,16.10
2023-03-23T17:16:44.052Z,16.83
2023-03-23T17:19:11.624Z,16.80
2023-03-23T17:21:39.318Z,16.38
2023-03-23T17:24:08.123Z,15.85
2023-03-23T17:26:36.811Z,15.45
2023-03-23T17:29:04.611Z,16.08
2023-03-23T17:31:32.055Z,15.77
2023-03-23T17:34:01.886Z,15.60
2023-03-23T17:36:31.209Z,14.85
2023-03-23T17:38:59.224Z,14.80
2023-03-23T17:41:27.202Z,19.23
2023-03-23T17:43:55.066Z,18.70
2023-03-23T17:46:23.092Z,19.08
2023-03-23T17:48:51.919Z,16.80
2023-03-23T17:51:22.686Z,18.63
2023-03-23T17:53:50.113Z,18.10
2023-03-23T17:56:18.906Z,18.27
2023-03-23T17:58:46.579Z,18.25
2023-03-23T18:01:14.333Z,19.42
2023-03-23T18:03:42.949Z,19.83
2023-03-23T18:06:14.578Z,18.13
2023-03-23T18:08:42.386Z,19.42
2023-03-23T18:11:09.767Z,20.77
2023-03-23T18:13:40.988Z,21.33
2023-03-23T18:16:14.077Z,19.77
2023-03-23T18:18:42.469Z,20.52
2023-03-23T18:21:11.074Z,20.05
2023-03-23T18:23:53.034Z,19.52
2023-03-23T18:26:26.738Z,19.15
2023-03-23T18:28:54.866Z,18.95
2023-03-23T18:31:22.819Z,20.00
2023-03-23T18:33:51.497Z,19.98
2023-03-23T18:36:21.610Z,19.63
2023-03-23T18:38:49.635Z,19.42
2023-03-23T18:41:18.146Z,19.50
2023-03-23T18:43:46.236Z,19.42
2023-03-23T18:46:16.777Z,20.15
2023-03-23T18:48:46.327Z,21.10
2023-03-23T18:51:15.019Z,21.27
2023-03-23T18:53:42.733Z,20.77
2023-03-23T18:56:16.382Z,20.83
2023-03-23T18:58:45.651Z,20.38
2023-03-23T19:01:16.400Z,20.55
2023-03-23T19:03:44.113Z,22.52
2023-03-23T19:06:18.616Z,19.45
2023-03-23T19:08:47.009Z,20.80
2023-03-23T19:11:14.948Z,19.85
2023-03-23T19:13:53.826Z,18.55
2023-03-23T19:16:26.124Z,18.67
2023-03-23T19:18:53.172Z,19.35
2023-03-23T19:21:24.969Z,20.58
2023-03-23T19:23:53.551Z,21.57
2023-03-23T19:26:46.496Z,19.85
2023-03-23T19:31:51.179Z,20.48
2023-03-23T19:34:22.185Z,20.10
2023-03-23T19:36:54.907Z,19.67
2023-03-23T19:39:26.919Z,22.13
2023-03-23T19:41:54.386Z,22.00
2023-03-23T19:44:22.265Z,21.17
2023-03-23T19:46:52.876Z,21.23
2023-03-23T19:49:21.160Z,21.42
2023-03-23T19:52:08.870Z,21.13
2023-03-23T19:54:39.126Z,20.52
2023-03-23T19:57:07.851Z,21.40
2023-03-23T19:59:35.620Z,20.48
2023-03-23T20:02:03.026Z,19.85
2023-03-23T20:04:30.752Z,19.30
2023-03-23T20:06:59.187Z,18.05
2023-03-23T20:09:31.265Z,19.50
2023-03-23T20:11:58.611Z,20.58
2023-03-23T20:14:29.403Z,18.73
2023-03-23T20:16:59.505Z,18.10
2023-03-23T20:19:29.509Z,19.33
2023-03-23T20:21:56.749Z,20.90
2023-03-23T20:24:24.337Z,19.90
2023-03-23T20:26:51.961Z,20.05
2023-03-23T20:29:24.430Z,19.77
2023-03-23T20:31:54.923Z,20.50
2023-03-23T20:34:36.577Z,20.65
2023-03-23T20:37:19.172Z,20.35
2023-03-23T20:40:01.203Z,21.35
2023-03-23T20:42:31.994Z,21.48
2023-03-23T20:45:02.808Z,19.52
2023-03-23T20:47:36.181Z,19.23
2023-03-23T20:50:09.071Z,21.55
2023-03-23T20:52:41.381Z,21.05
2023-03-23T20:55:10.064Z,21.73
2023-03-23T20:57:40.429Z,21.20
2023-03-23T21:00:10.035Z,22.02
2023-03-23T21:02:37.594Z,22.00
2023-03-23T21:05:07.213Z,22.02
2023-03-23T21:07:34.794Z,21.00
2023-03-23T21:10:02.528Z,22.23
2023-03-23T21:12:29.948Z,22.73
2023-03-23T21:15:03.767Z,21.42
2023-03-23T21:17:31.526Z,19.90
2023-03-23T21:20:05.027Z,20.67
2023-03-23T21:25:02.845Z,20.85
2023-03-23T21:27:43.266Z,19.30
2023-03-23T21:30:16.374Z,20.90
2023-03-23T21:32:50.221Z,19.85
2023-03-23T21:35:23.113Z,20.17
2023-03-23T21:37:50.620Z,17.90
2023-03-23T21:40:19.271Z,18.67
2023-03-23T21:42:49.522Z,17.88
2023-03-23T21:45:26.262Z,18.40
2023-03-23T21:47:57.350Z,17.33
2023-03-23T21:50:26.104Z,19.27
2023-03-23T21:52:54.161Z,17.75
2023-03-23T21:55:22.280Z,19.40
2023-03-23T22:00:47.432Z,18.88
2023-03-23T22:03:23.263Z,19.10
2023-03-23T22:06:31.744Z,19.45
2023-03-23T22:09:00.259Z,16.55
2023-03-23T22:11:43.548Z,17.73
2023-03-23T22:14:25.589Z,17.50
2023-03-23T22:16:53.423Z,17.45
2023-03-23T22:19:23.549Z,16.70
2023-03-23T22:21:50.737Z,14.77
2023-03-23T22:24:28.535Z,16.60
2023-03-23T22:27:08.438Z,16.50
2023-03-23T22:29:43.350Z,18.58
2023-03-23T22:32:13.355Z,16.95
2023-03-23T22:34:43.453Z,16.23
2023-03-23T22:37:28.652Z,18.38
2023-03-23T22:40:12.832Z,18.23
2023-03-23T22:42:43.887Z,17.33
2023-03-23T22:45:19.550Z,16.40
2023-03-23T22:48:00.995Z,17.10
2023-03-23T22:51:36.104Z,16.88
2023-03-23T22:54:16.998Z,16.00
2023-03-23T22:59:20.362Z,16.33
2023-03-23T23:01:56.103Z,17.38
2023-03-23T23:04:46.149Z,17.10
2023-03-23T23:07:15.257Z,16.90
2023-03-23T23:09:52.175Z,18.60
2023-03-23T23:12:21.871Z,17.60
2023-03-23T23:14:59.002Z,18.33
2023-03-23T23:17:35.104Z,16.77
2023-03-23T23:20:14.500Z,16.27
2023-03-23T23:22:52.945Z,17.77
2023-03-23T23:25:23.778Z,15.77
2023-03-23T23:27:57.512Z,18.08
2023-03-23T23:30:34.067Z,16.65
2023-03-23T23:33:07.498Z,17.45
2023-03-23T23:38:12.808Z,16.80
2023-03-23T23:40:51.720Z,16.88
2023-03-23T23:43:27.239Z,18.02
2023-03-23T23:45:57.488Z,18.10
2023-03-23T23:48:24.597Z,17.23
2023-03-23T23:50:52.270Z,17.33
2023-03-23T23:53:23.191Z,17.38
2023-03-23T23:55:50.658Z,17.83
2023-03-23T23:58:21.262Z,17.65
